sensor_id;sensor_type;location;lat;lon;timestamp;temperature;humidity
7694;DHT22;3889;48.162;11.510;2022-12-18T00:01:25;-3.30;99.90
7694;DHT22;3889;48.162;11.510;2022-12-18T00:03:55;-3.40;99.90
7694;DHT22;3889;48.162;11.510;2022-12-18T00:06:47;-3.60;99.90
7694;DHT22;3889;48.162;11.510;2022-12-18T00:09:15;-3.50;99.90
7694;DHT22;3889;48.162;11.510;2022-12-18T00:11:43;-3.50;99.90
7694;DHT22;3889;48.162;11.510;2022-12-18T00:14:12;-3.50;99.90
7694;DHT22;3889;48.162;11.510;2022-12-18T00:16:43;-3.60;99.90
7694;DHT22;3889;48.162;11.510;2022-12-18T00:19:13;-3.50;99.90
7694;DHT22;3889;48.162;11.510;2022-12-18T00:21:42;-3.70;99.90
7694;DHT22;3889;48.162;11.510;2022-12-18T00:24:11;-3.60;99.90
7694;DHT22;3889;48.162;11.510;2022-12-18T00:26:39;-3.60;99.90
7694;DHT22;3889;48.162;11.510;2022-12-18T00:29:10;-3.50;99.90
7694;DHT22;3889;48.162;11.510;2022-12-18T00:31:40;-3.60;99.90
7694;DHT22;3889;48.162;11.510;2022-12-18T00:34:10;-3.60;99.90
7694;DHT22;3889;48.162;11.510;2022-12-18T00:36:39;-3.60;99.90
7694;DHT22;3889;48.162;11.510;2022-12-18T00:39:10;-3.90;99.90
7694;DHT22;3889;48.162;11.510;2022-12-18T00:41:38;-3.90;99.90
7694;DHT22;3889;48.162;11.510;2022-12-18T00:44:23;-3.90;99.90
7694;DHT22;3889;48.162;11.510;2022-12-18T00:46:51;-3.70;99.90
7694;DHT22;3889;48.162;11.510;2022-12-18T00:49:20;-3.70;99.90
7694;DHT22;3889;48.162;11.510;2022-12-18T00:51:49;-3.80;99.90
7694;DHT22;3889;48.162;11.510;2022-12-18T00:54:17;-3.90;99.90
7694;DHT22;3889;48.162;11.510;2022-12-18T00:56:45;-4.00;99.90
7694;DHT22;3889;48.162;11.510;2022-12-18T00:59:15;-4.00;99.90
7694;DHT22;3889;48.162;11.510;2022-12-18T01:01:44;-4.10;99.90
7694;DHT22;3889;48.162;11.510;2022-12-18T01:04:13;-3.90;99.90
7694;DHT22;3889;48.162;11.510;2022-12-18T01:06:41;-4.10;99.90
7694;DHT22;3889;48.162;11.510;2022-12-18T01:09:12;-4.00;99.90
7694;DHT22;3889;48.162;11.510;2022-12-18T01:11:40;-3.90;99.90
7694;DHT22;3889;48.162;11.510;2022-12-18T01:14:08;-4.00;99.90
7694;DHT22;3889;48.162;11.510;2022-12-18T01:16:36;-4.00;99.90
7694;DHT22;3889;48.162;11.510;2022-12-18T01:19:04;-4.00;99.90
7694;DHT22;3889;48.162;11.510;2022-12-18T01:21:32;-4.00;99.90
7694;DHT22;3889;48.162;11.510;2022-12-18T01:24:00;-4.10;99.90
7694;DHT22;3889;48.162;11.510;2022-12-18T01:26:29;-3.90;99.90
7694;DHT22;3889;48.162;11.510;2022-12-18T01:28:57;-4.00;99.90
7694;DHT22;3889;48.162;11.510;2022-12-18T01:31:27;-3.90;99.90
7694;DHT22;3889;48.162;11.510;2022-12-18T01:33:55;-3.80;99.90
7694;DHT22;3889;48.162;11.510;2022-12-18T01:36:24;-3.80;99.90
7694;DHT22;3889;48.162;11.510;2022-12-18T01:38:52;-3.80;99.90
7694;DHT22;3889;48.162;11.510;2022-12-18T01:41:23;-3.90;99.90
7694;DHT22;3889;48.162;11.510;2022-12-18T01:43:54;-3.90;99.90
7694;DHT22;3889;48.162;11.510;2022-12-18T01:46:26;-3.90;99.90
7694;DHT22;3889;48.162;11.510;2022-12-18T01:48:57;-4.10;99.90
7694;DHT22;3889;48.162;11.510;2022-12-18T01:51:27;-4.00;99.90
7694;DHT22;3889;48.162;11.510;2022-12-18T01:53:55;-3.90;99.90
7694;DHT22;3889;48.162;11.510;2022-12-18T01:56:23;-3.90;99.90
7694;DHT22;3889;48.162;11.510;2022-12-18T01:58:57;-3.80;99.90
7694;DHT22;3889;48.162;11.510;2022-12-18T02:01:28;-3.90;99.90
7694;DHT22;3889;48.162;11.510;2022-12-18T02:04:18;-3.70;99.90
7694;DHT22;3889;48.162;11.510;2022-12-18T02:06:51;-3.80;99.90
7694;DHT22;3889;48.162;11.510;2022-12-18T02:09:26;-3.70;99.90
7694;DHT22;3889;48.162;11.510;2022-12-18T02:12:00;-3.60;99.90
7694;DHT22;3889;48.162;11.510;2022-12-18T02:14:33;-3.60;99.90
7694;DHT22;3889;48.162;11.510;2022-12-18T02:17:09;-3.50;99.90
7694;DHT22;3889;48.162;11.510;2022-12-18T02:19:57;-3.50;99.90
7694;DHT22;3889;48.162;11.510;2022-12-18T02:22:33;-3.60;99.90
7694;DHT22;3889;48.162;11.510;2022-12-18T02:25:16;-3.60;99.90
7694;DHT22;3889;48.162;11.510;2022-12-18T02:27:50;-3.50;99.90
7694;DHT22;3889;48.162;11.510;2022-12-18T02:30:20;-3.60;99.90
7694;DHT22;3889;48.162;11.510;2022-12-18T02:32:50;-3.70;99.90
7694;DHT22;3889;48.162;11.510;2022-12-18T02:35:22;-3.80;99.90
7694;DHT22;3889;48.162;11.510;2022-12-18T02:37:53;-3.90;99.90
7694;DHT22;3889;48.162;11.510;2022-12-18T02:40:24;-3.70;99.90
7694;DHT22;3889;48.162;11.510;2022-12-18T02:42:53;-3.70;99.90
7694;DHT22;3889;48.162;11.510;2022-12-18T02:45:21;-3.70;99.90
7694;DHT22;3889;48.162;11.510;2022-12-18T02:47:49;-3.60;99.90
7694;DHT22;3889;48.162;11.510;2022-12-18T02:50:25;-3.70;99.90
7694;DHT22;3889;48.162;11.510;2022-12-18T02:53:03;-3.80;99.90
7694;DHT22;3889;48.162;11.510;2022-12-18T02:55:43;-3.80;99.90
7694;DHT22;3889;48.162;11.510;2022-12-18T02:58:17;-3.70;99.90
7694;DHT22;3889;48.162;11.510;2022-12-18T03:00:53;-3.70;99.90
7694;DHT22;3889;48.162;11.510;2022-12-18T03:03:28;-3.90;99.90
7694;DHT22;3889;48.162;11.510;2022-12-18T03:06:00;-3.80;99.90
7694;DHT22;3889;48.162;11.510;2022-12-18T03:08:32;-3.80;99.90
7694;DHT22;3889;48.162;11.510;2022-12-18T03:11:03;-3.80;99.90
7694;DHT22;3889;48.162;11.510;2022-12-18T03:13:35;-3.70;99.90
7694;DHT22;3889;48.162;11.510;2022-12-18T03:16:07;-3.70;99.90
7694;DHT22;3889;48.162;11.510;2022-12-18T03:18:39;-3.70;99.90
7694;DHT22;3889;48.162;11.510;2022-12-18T03:21:11;-3.70;99.90
7694;DHT22;3889;48.162;11.510;2022-12-18T03:23:42;-3.70;99.90
7694;DHT22;3889;48.162;11.510;2022-12-18T03:26:14;-3.60;99.90
7694;DHT22;3889;48.162;11.510;2022-12-18T03:28:46;-3.70;99.90
7694;DHT22;3889;48.162;11.510;2022-12-18T03:31:17;-3.60;99.90
7694;DHT22;3889;48.162;11.510;2022-12-18T03:33:51;-3.60;99.90
7694;DHT22;3889;48.162;11.510;2022-12-18T03:36:19;-3.70;99.90
7694;DHT22;3889;48.162;11.510;2022-12-18T03:38:47;-3.60;99.90
7694;DHT22;3889;48.162;11.510;2022-12-18T03:41:19;-3.50;99.90
7694;DHT22;3889;48.162;11.510;2022-12-18T03:43:52;-3.70;99.90
7694;DHT22;3889;48.162;11.510;2022-12-18T03:46:27;-3.60;99.90
7694;DHT22;3889;48.162;11.510;2022-12-18T03:49:02;-3.70;99.90
7694;DHT22;3889;48.162;11.510;2022-12-18T03:51:39;-3.60;99.90
7694;DHT22;3889;48.162;11.510;2022-12-18T03:54:09;-3.70;99.90
7694;DHT22;3889;48.162;11.510;2022-12-18T03:56:41;-3.60;99.90
7694;DHT22;3889;48.162;11.510;2022-12-18T03:59:12;-3.60;99.90
7694;DHT22;3889;48.162;11.510;2022-12-18T04:01:46;-3.70;99.90
7694;DHT22;3889;48.162;11.510;2022-12-18T04:04:16;-3.60;99.90
7694;DHT22;3889;48.162;11.510;2022-12-18T04:06:46;-3.60;99.90
7694;DHT22;3889;48.162;11.510;2022-12-18T04:09:15;-3.50;99.90
7694;DHT22;3889;48.162;11.510;2022-12-18T04:11:43;-3.60;99.90
7694;DHT22;3889;48.162;11.510;2022-12-18T04:14:12;-3.60;99.90
7694;DHT22;3889;48.162;11.510;2022-12-18T04:16:44;-3.70;99.90
7694;DHT22;3889;48.162;11.510;2022-12-18T04:19:12;-3.70;99.90
7694;DHT22;3889;48.162;11.510;2022-12-18T04:21:40;-3.60;99.90
7694;DHT22;3889;48.162;11.510;2022-12-18T04:24:08;-3.50;99.90
7694;DHT22;3889;48.162;11.510;2022-12-18T04:26:35;-3.70;99.90
7694;DHT22;3889;48.162;11.510;2022-12-18T04:29:04;-3.60;99.90
7694;DHT22;3889;48.162;11.510;2022-12-18T04:31:33;-3.50;99.90
7694;DHT22;3889;48.162;11.510;2022-12-18T04:34:01;-3.50;99.90
7694;DHT22;3889;48.162;11.510;2022-12-18T04:36:29;-3.50;99.90
7694;DHT22;3889;48.162;11.510;2022-12-18T04:38:57;-3.50;99.90
7694;DHT22;3889;48.162;11.510;2022-12-18T04:41:25;-3.60;99.90
7694;DHT22;3889;48.162;11.510;2022-12-18T04:43:53;-3.60;99.90
7694;DHT22;3889;48.162;11.510;2022-12-18T04:46:20;-3.50;99.90
7694;DHT22;3889;48.162;11.510;2022-12-18T04:48:50;-3.60;99.90
7694;DHT22;3889;48.162;11.510;2022-12-18T04:51:17;-3.70;99.90
7694;DHT22;3889;48.162;11.510;2022-12-18T04:53:52;-3.70;99.90
7694;DHT22;3889;48.162;11.510;2022-12-18T04:56:20;-3.60;99.90
7694;DHT22;3889;48.162;11.510;2022-12-18T04:58:48;-3.70;99.90
7694;DHT22;3889;48.162;11.510;2022-12-18T05:01:17;-3.70;99.90
7694;DHT22;3889;48.162;11.510;2022-12-18T05:03:45;-3.80;99.90
7694;DHT22;3889;48.162;11.510;2022-12-18T05:06:14;-3.60;99.90
7694;DHT22;3889;48.162;11.510;2022-12-18T05:08:42;-3.60;99.90
7694;DHT22;3889;48.162;11.510;2022-12-18T05:11:13;-3.50;99.90
7694;DHT22;3889;48.162;11.510;2022-12-18T05:13:43;-3.60;99.90
7694;DHT22;3889;48.162;11.510;2022-12-18T05:16:12;-3.60;99.90
7694;DHT22;3889;48.162;11.510;2022-12-18T05:18:40;-3.60;99.90
7694;DHT22;3889;48.162;11.510;2022-12-18T05:21:08;-3.70;99.90
7694;DHT22;3889;48.162;11.510;2022-12-18T05:23:37;-3.70;99.90
7694;DHT22;3889;48.162;11.510;2022-12-18T05:26:06;-3.60;99.90
7694;DHT22;3889;48.162;11.510;2022-12-18T05:28:35;-3.50;99.90
7694;DHT22;3889;48.162;11.510;2022-12-18T05:31:04;-3.60;99.90
7694;DHT22;3889;48.162;11.510;2022-12-18T05:33:33;-3.60;99.90
7694;DHT22;3889;48.162;11.510;2022-12-18T05:36:04;-3.70;99.90
7694;DHT22;3889;48.162;11.510;2022-12-18T05:38:34;-3.60;99.90
7694;DHT22;3889;48.162;11.510;2022-12-18T05:41:04;-3.60;99.90
7694;DHT22;3889;48.162;11.510;2022-12-18T05:43:34;-3.50;99.90
7694;DHT22;3889;48.162;11.510;2022-12-18T05:46:04;-3.50;99.90
7694;DHT22;3889;48.162;11.510;2022-12-18T05:48:32;-3.50;99.90
7694;DHT22;3889;48.162;11.510;2022-12-18T05:51:04;-3.50;99.90
7694;DHT22;3889;48.162;11.510;2022-12-18T05:53:34;-3.50;99.90
7694;DHT22;3889;48.162;11.510;2022-12-18T05:56:06;-3.50;99.90
7694;DHT22;3889;48.162;11.510;2022-12-18T05:58:35;-3.60;99.90
7694;DHT22;3889;48.162;11.510;2022-12-18T06:01:08;-3.50;99.90
7694;DHT22;3889;48.162;11.510;2022-12-18T06:03:36;-3.40;99.90
7694;DHT22;3889;48.162;11.510;2022-12-18T06:06:11;-3.50;99.90
7694;DHT22;3889;48.162;11.510;2022-12-18T06:08:39;-3.40;99.90
7694;DHT22;3889;48.162;11.510;2022-12-18T06:11:15;-3.60;99.90
7694;DHT22;3889;48.162;11.510;2022-12-18T06:13:43;-3.60;99.90
7694;DHT22;3889;48.162;11.510;2022-12-18T06:16:11;-3.60;99.90
7694;DHT22;3889;48.162;11.510;2022-12-18T06:18:39;-3.50;99.90
7694;DHT22;3889;48.162;11.510;2022-12-18T06:21:07;-3.60;99.90
7694;DHT22;3889;48.162;11.510;2022-12-18T06:23:35;-3.60;99.90
7694;DHT22;3889;48.162;11.510;2022-12-18T06:26:04;-3.60;99.90
7694;DHT22;3889;48.162;11.510;2022-12-18T06:28:34;-3.50;99.90
7694;DHT22;3889;48.162;11.510;2022-12-18T06:31:02;-3.60;99.90
7694;DHT22;3889;48.162;11.510;2022-12-18T06:33:31;-3.50;99.90
7694;DHT22;3889;48.162;11.510;2022-12-18T06:36:00;-3.50;99.90
7694;DHT22;3889;48.162;11.510;2022-12-18T06:38:28;-3.50;99.90
7694;DHT22;3889;48.162;11.510;2022-12-18T06:40:56;-3.50;99.90
7694;DHT22;3889;48.162;11.510;2022-12-18T06:43:24;-3.40;99.90
7694;DHT22;3889;48.162;11.510;2022-12-18T06:45:58;-3.50;99.90
7694;DHT22;3889;48.162;11.510;2022-12-18T06:48:26;-3.60;99.90
7694;DHT22;3889;48.162;11.510;2022-12-18T06:50:54;-3.60;99.90
7694;DHT22;3889;48.162;11.510;2022-12-18T06:53:22;-3.60;99.90
7694;DHT22;3889;48.162;11.510;2022-12-18T06:55:50;-3.60;99.90
7694;DHT22;3889;48.162;11.510;2022-12-18T06:58:18;-3.50;99.90
7694;DHT22;3889;48.162;11.510;2022-12-18T07:00:46;-3.60;99.90
7694;DHT22;3889;48.162;11.510;2022-12-18T07:03:15;-3.60;99.90
7694;DHT22;3889;48.162;11.510;2022-12-18T07:05:43;-3.80;99.90
7694;DHT22;3889;48.162;11.510;2022-12-18T07:08:11;-3.80;99.90
7694;DHT22;3889;48.162;11.510;2022-12-18T07:10:41;-3.90;99.90
7694;DHT22;3889;48.162;11.510;2022-12-18T07:13:13;-3.90;99.90
7694;DHT22;3889;48.162;11.510;2022-12-18T07:15:41;-3.80;99.90
7694;DHT22;3889;48.162;11.510;2022-12-18T07:18:10;-3.90;99.90
7694;DHT22;3889;48.162;11.510;2022-12-18T07:20:40;-3.90;99.90
7694;DHT22;3889;48.162;11.510;2022-12-18T07:23:08;-4.00;99.90
7694;DHT22;3889;48.162;11.510;2022-12-18T07:25:36;-3.90;99.90
7694;DHT22;3889;48.162;11.510;2022-12-18T07:28:04;-3.90;99.90
7694;DHT22;3889;48.162;11.510;2022-12-18T07:30:32;-3.80;99.90
7694;DHT22;3889;48.162;11.510;2022-12-18T07:33:00;-3.90;99.90
7694;DHT22;3889;48.162;11.510;2022-12-18T07:35:28;-3.90;99.90
7694;DHT22;3889;48.162;11.510;2022-12-18T07:37:57;-4.00;99.90
7694;DHT22;3889;48.162;11.510;2022-12-18T07:40:25;-3.90;99.90
7694;DHT22;3889;48.162;11.510;2022-12-18T07:42:53;-3.90;99.90
7694;DHT22;3889;48.162;11.510;2022-12-18T07:45:21;-3.90;99.90
7694;DHT22;3889;48.162;11.510;2022-12-18T07:47:48;-4.00;99.90
7694;DHT22;3889;48.162;11.510;2022-12-18T07:50:16;-3.90;99.90
7694;DHT22;3889;48.162;11.510;2022-12-18T07:52:44;-4.00;99.90
7694;DHT22;3889;48.162;11.510;2022-12-18T07:55:13;-4.00;99.90
7694;DHT22;3889;48.162;11.510;2022-12-18T07:57:41;-4.00;99.90
7694;DHT22;3889;48.162;11.510;2022-12-18T08:00:21;-4.00;99.90
7694;DHT22;3889;48.162;11.510;2022-12-18T08:02:48;-4.00;99.90
7694;DHT22;3889;48.162;11.510;2022-12-18T08:05:17;-4.00;99.90
7694;DHT22;3889;48.162;11.510;2022-12-18T08:07:45;-4.00;99.90
7694;DHT22;3889;48.162;11.510;2022-12-18T08:10:14;-3.90;99.90
7694;DHT22;3889;48.162;11.510;2022-12-18T08:12:42;-3.80;99.90
7694;DHT22;3889;48.162;11.510;2022-12-18T08:15:10;-3.70;99.90
7694;DHT22;3889;48.162;11.510;2022-12-18T08:17:38;-3.60;99.90
7694;DHT22;3889;48.162;11.510;2022-12-18T08:20:07;-3.50;99.90
7694;DHT22;3889;48.162;11.510;2022-12-18T08:22:35;-3.60;99.90
7694;DHT22;3889;48.162;11.510;2022-12-18T08:25:03;-3.60;99.90
7694;DHT22;3889;48.162;11.510;2022-12-18T08:27:33;-3.50;99.90
7694;DHT22;3889;48.162;11.510;2022-12-18T08:30:01;-3.30;99.90
7694;DHT22;3889;48.162;11.510;2022-12-18T08:32:30;-3.20;99.90
7694;DHT22;3889;48.162;11.510;2022-12-18T08:34:59;-3.20;99.90
7694;DHT22;3889;48.162;11.510;2022-12-18T08:37:27;-3.10;99.90
7694;DHT22;3889;48.162;11.510;2022-12-18T08:39:55;-3.10;99.90
7694;DHT22;3889;48.162;11.510;2022-12-18T08:42:23;-3.00;99.90
7694;DHT22;3889;48.162;11.510;2022-12-18T08:45:10;-3.00;99.90
7694;DHT22;3889;48.162;11.510;2022-12-18T08:47:38;-3.10;99.90
7694;DHT22;3889;48.162;11.510;2022-12-18T08:50:06;-3.10;99.90
7694;DHT22;3889;48.162;11.510;2022-12-18T08:52:34;-3.20;99.90
7694;DHT22;3889;48.162;11.510;2022-12-18T08:55:02;-3.10;99.90
7694;DHT22;3889;48.162;11.510;2022-12-18T08:57:29;-3.30;99.90
7694;DHT22;3889;48.162;11.510;2022-12-18T08:59:59;-3.20;99.90
7694;DHT22;3889;48.162;11.510;2022-12-18T09:02:28;-3.20;99.90
7694;DHT22;3889;48.162;11.510;2022-12-18T09:04:57;-3.10;99.90
7694;DHT22;3889;48.162;11.510;2022-12-18T09:07:24;-3.10;99.90
7694;DHT22;3889;48.162;11.510;2022-12-18T09:09:53;-3.10;99.90
7694;DHT22;3889;48.162;11.510;2022-12-18T09:12:21;-3.10;99.90
7694;DHT22;3889;48.162;11.510;2022-12-18T09:14:49;-3.00;99.90
7694;DHT22;3889;48.162;11.510;2022-12-18T09:17:17;-3.20;99.90
7694;DHT22;3889;48.162;11.510;2022-12-18T09:19:46;-3.50;99.90
7694;DHT22;3889;48.162;11.510;2022-12-18T09:22:14;-3.50;99.90
7694;DHT22;3889;48.162;11.510;2022-12-18T09:24:42;-3.30;99.90
7694;DHT22;3889;48.162;11.510;2022-12-18T09:27:10;-3.00;99.90
7694;DHT22;3889;48.162;11.510;2022-12-18T09:29:38;-3.00;99.90
7694;DHT22;3889;48.162;11.510;2022-12-18T09:32:06;-2.80;99.90
7694;DHT22;3889;48.162;11.510;2022-12-18T09:34:34;-2.70;99.90
7694;DHT22;3889;48.162;11.510;2022-12-18T09:37:03;-2.60;99.90
7694;DHT22;3889;48.162;11.510;2022-12-18T09:39:31;-2.60;99.90
7694;DHT22;3889;48.162;11.510;2022-12-18T09:42:01;-2.70;99.90
7694;DHT22;3889;48.162;11.510;2022-12-18T09:44:32;-2.70;99.90
7694;DHT22;3889;48.162;11.510;2022-12-18T09:47:13;-2.60;99.90
7694;DHT22;3889;48.162;11.510;2022-12-18T09:49:45;-2.60;99.90
7694;DHT22;3889;48.162;11.510;2022-12-18T09:52:17;-3.00;99.90
7694;DHT22;3889;48.162;11.510;2022-12-18T09:54:50;-3.20;99.90
7694;DHT22;3889;48.162;11.510;2022-12-18T09:57:22;-3.10;99.90
7694;DHT22;3889;48.162;11.510;2022-12-18T09:59:54;-3.10;99.90
7694;DHT22;3889;48.162;11.510;2022-12-18T10:02:25;-2.90;99.90
7694;DHT22;3889;48.162;11.510;2022-12-18T10:05:03;-2.80;99.90
7694;DHT22;3889;48.162;11.510;2022-12-18T10:07:50;-2.70;99.90
7694;DHT22;3889;48.162;11.510;2022-12-18T10:10:27;-2.60;99.90
7694;DHT22;3889;48.162;11.510;2022-12-18T10:13:03;-2.60;99.90
7694;DHT22;3889;48.162;11.510;2022-12-18T10:15:38;-2.60;99.90
7694;DHT22;3889;48.162;11.510;2022-12-18T10:18:19;-2.40;99.90
7694;DHT22;3889;48.162;11.510;2022-12-18T10:20:52;-2.50;99.90
7694;DHT22;3889;48.162;11.510;2022-12-18T10:23:26;-2.50;99.90
7694;DHT22;3889;48.162;11.510;2022-12-18T10:26:00;-2.60;99.90
7694;DHT22;3889;48.162;11.510;2022-12-18T10:28:30;-2.50;99.90
7694;DHT22;3889;48.162;11.510;2022-12-18T10:30:58;-2.50;99.90
7694;DHT22;3889;48.162;11.510;2022-12-18T10:33:29;-2.40;99.90
7694;DHT22;3889;48.162;11.510;2022-12-18T10:35:58;-2.40;99.90
7694;DHT22;3889;48.162;11.510;2022-12-18T10:38:30;-2.50;99.90
7694;DHT22;3889;48.162;11.510;2022-12-18T10:41:01;-2.60;99.90
7694;DHT22;3889;48.162;11.510;2022-12-18T10:43:30;-2.30;99.90
7694;DHT22;3889;48.162;11.510;2022-12-18T10:46:02;-2.30;99.90
7694;DHT22;3889;48.162;11.510;2022-12-18T10:48:30;-2.20;99.90
7694;DHT22;3889;48.162;11.510;2022-12-18T10:50:59;-2.10;99.90
7694;DHT22;3889;48.162;11.510;2022-12-18T10:53:41;-2.40;99.90
7694;DHT22;3889;48.162;11.510;2022-12-18T10:56:10;-2.60;99.90
7694;DHT22;3889;48.162;11.510;2022-12-18T10:58:38;-2.60;99.90
7694;DHT22;3889;48.162;11.510;2022-12-18T11:01:10;-2.50;99.90
7694;DHT22;3889;48.162;11.510;2022-12-18T11:03:40;-2.40;99.90
7694;DHT22;3889;48.162;11.510;2022-12-18T11:06:10;-2.60;99.90
7694;DHT22;3889;48.162;11.510;2022-12-18T11:08:40;-2.70;99.90
7694;DHT22;3889;48.162;11.510;2022-12-18T11:11:19;-2.70;99.90
7694;DHT22;3889;48.162;11.510;2022-12-18T11:14:01;-2.90;99.90
7694;DHT22;3889;48.162;11.510;2022-12-18T11:16:31;-2.90;99.90
7694;DHT22;3889;48.162;11.510;2022-12-18T11:19:30;-2.60;99.90
7694;DHT22;3889;48.162;11.510;2022-12-18T11:21:59;-2.60;99.90
7694;DHT22;3889;48.162;11.510;2022-12-18T11:24:31;-2.70;99.90
7694;DHT22;3889;48.162;11.510;2022-12-18T11:27:02;-2.80;99.90
7694;DHT22;3889;48.162;11.510;2022-12-18T11:29:36;-2.80;99.90
7694;DHT22;3889;48.162;11.510;2022-12-18T11:32:27;-2.70;99.90
7694;DHT22;3889;48.162;11.510;2022-12-18T11:35:01;-2.60;99.90
7694;DHT22;3889;48.162;11.510;2022-12-18T11:37:31;-2.50;99.90
7694;DHT22;3889;48.162;11.510;2022-12-18T11:40:07;-2.40;99.90
7694;DHT22;3889;48.162;11.510;2022-12-18T11:42:43;-2.60;99.90
7694;DHT22;3889;48.162;11.510;2022-12-18T11:45:24;-2.50;99.90
7694;DHT22;3889;48.162;11.510;2022-12-18T11:47:57;-2.50;99.90
7694;DHT22;3889;48.162;11.510;2022-12-18T11:50:33;-2.50;99.90
7694;DHT22;3889;48.162;11.510;2022-12-18T11:53:01;-2.70;99.90
7694;DHT22;3889;48.162;11.510;2022-12-18T11:55:39;-2.80;99.90
7694;DHT22;3889;48.162;11.510;2022-12-18T11:58:15;-2.90;99.90
7694;DHT22;3889;48.162;11.510;2022-12-18T12:00:50;-2.60;99.90
7694;DHT22;3889;48.162;11.510;2022-12-18T12:06:12;-2.70;99.90
7694;DHT22;3889;48.162;11.510;2022-12-18T12:08:54;-2.80;99.90
7694;DHT22;3889;48.162;11.510;2022-12-18T12:11:30;-2.70;99.90
7694;DHT22;3889;48.162;11.510;2022-12-18T12:14:16;-2.50;99.90
7694;DHT22;3889;48.162;11.510;2022-12-18T12:16:50;-2.50;99.90
7694;DHT22;3889;48.162;11.510;2022-12-18T12:22:18;-2.50;99.90
7694;DHT22;3889;48.162;11.510;2022-12-18T12:24:59;-2.80;99.90
7694;DHT22;3889;48.162;11.510;2022-12-18T12:27:36;-2.70;99.90
7694;DHT22;3889;48.162;11.510;2022-12-18T12:30:09;-2.70;99.90
7694;DHT22;3889;48.162;11.510;2022-12-18T12:32:49;-2.80;99.90
7694;DHT22;3889;48.162;11.510;2022-12-18T12:35:29;-2.90;99.90
7694;DHT22;3889;48.162;11.510;2022-12-18T12:38:07;-2.70;99.90
7694;DHT22;3889;48.162;11.510;2022-12-18T12:40:39;-2.50;99.90
7694;DHT22;3889;48.162;11.510;2022-12-18T12:43:33;-2.50;99.90
7694;DHT22;3889;48.162;11.510;2022-12-18T12:46:05;-2.60;99.90
7694;DHT22;3889;48.162;11.510;2022-12-18T12:48:40;-2.60;99.90
7694;DHT22;3889;48.162;11.510;2022-12-18T12:51:15;-2.60;99.90
7694;DHT22;3889;48.162;11.510;2022-12-18T12:53:44;-2.70;99.90
7694;DHT22;3889;48.162;11.510;2022-12-18T12:56:14;-2.70;99.90
7694;DHT22;3889;48.162;11.510;2022-12-18T12:58:52;-2.90;99.90
7694;DHT22;3889;48.162;11.510;2022-12-18T13:01:28;-2.90;99.90
7694;DHT22;3889;48.162;11.510;2022-12-18T13:04:08;-2.90;99.90
7694;DHT22;3889;48.162;11.510;2022-12-18T13:06:45;-3.00;99.90
7694;DHT22;3889;48.162;11.510;2022-12-18T13:09:15;-2.90;99.90
7694;DHT22;3889;48.162;11.510;2022-12-18T13:11:45;-2.80;99.90
7694;DHT22;3889;48.162;11.510;2022-12-18T13:14:34;-2.70;99.90
7694;DHT22;3889;48.162;11.510;2022-12-18T13:17:30;-2.60;99.90
7694;DHT22;3889;48.162;11.510;2022-12-18T13:20:19;-2.60;99.90
7694;DHT22;3889;48.162;11.510;2022-12-18T13:22:48;-2.90;99.90
7694;DHT22;3889;48.162;11.510;2022-12-18T13:25:29;-2.80;99.90
7694;DHT22;3889;48.162;11.510;2022-12-18T13:28:07;-2.80;99.90
7694;DHT22;3889;48.162;11.510;2022-12-18T13:30:49;-3.00;99.90
7694;DHT22;3889;48.162;11.510;2022-12-18T13:33:41;-3.00;99.90
7694;DHT22;3889;48.162;11.510;2022-12-18T13:36:33;-3.10;99.90
7694;DHT22;3889;48.162;11.510;2022-12-18T13:39:24;-3.10;99.90
7694;DHT22;3889;48.162;11.510;2022-12-18T13:42:35;-2.90;99.90
7694;DHT22;3889;48.162;11.510;2022-12-18T13:45:45;-3.00;99.90
7694;DHT22;3889;48.162;11.510;2022-12-18T13:48:18;-3.10;99.90
7694;DHT22;3889;48.162;11.510;2022-12-18T13:50:49;-3.20;99.90
7694;DHT22;3889;48.162;11.510;2022-12-18T13:53:22;-3.10;99.90
7694;DHT22;3889;48.162;11.510;2022-12-18T13:55:51;-3.00;99.90
7694;DHT22;3889;48.162;11.510;2022-12-18T13:58:19;-2.90;99.90
7694;DHT22;3889;48.162;11.510;2022-12-18T14:00:49;-2.90;99.90
7694;DHT22;3889;48.162;11.510;2022-12-18T14:03:20;-3.00;99.90
7694;DHT22;3889;48.162;11.510;2022-12-18T14:05:54;-3.00;99.90
7694;DHT22;3889;48.162;11.510;2022-12-18T14:08:29;-3.00;99.90
7694;DHT22;3889;48.162;11.510;2022-12-18T14:11:00;-3.10;99.90
7694;DHT22;3889;48.162;11.510;2022-12-18T14:13:32;-3.10;99.90
7694;DHT22;3889;48.162;11.510;2022-12-18T14:16:04;-3.10;99.90
7694;DHT22;3889;48.162;11.510;2022-12-18T14:18:41;-3.10;99.90
7694;DHT22;3889;48.162;11.510;2022-12-18T14:21:18;-3.10;99.90
7694;DHT22;3889;48.162;11.510;2022-12-18T14:23:47;-3.20;99.90
7694;DHT22;3889;48.162;11.510;2022-12-18T14:26:23;-3.20;99.90
7694;DHT22;3889;48.162;11.510;2022-12-18T14:28:51;-3.30;99.90
7694;DHT22;3889;48.162;11.510;2022-12-18T14:31:23;-3.40;99.90
7694;DHT22;3889;48.162;11.510;2022-12-18T14:33:52;-3.40;99.90
7694;DHT22;3889;48.162;11.510;2022-12-18T14:36:21;-3.50;99.90
7694;DHT22;3889;48.162;11.510;2022-12-18T14:38:51;-3.60;99.90
7694;DHT22;3889;48.162;11.510;2022-12-18T14:41:21;-3.60;99.90
7694;DHT22;3889;48.162;11.510;2022-12-18T14:43:50;-3.60;99.90
7694;DHT22;3889;48.162;11.510;2022-12-18T14:46:32;-3.60;99.90
7694;DHT22;3889;48.162;11.510;2022-12-18T14:49:04;-3.60;99.90
7694;DHT22;3889;48.162;11.510;2022-12-18T14:51:34;-3.80;99.90
7694;DHT22;3889;48.162;11.510;2022-12-18T14:54:05;-3.60;99.90
7694;DHT22;3889;48.162;11.510;2022-12-18T14:56:36;-3.60;99.90
7694;DHT22;3889;48.162;11.510;2022-12-18T14:59:06;-3.60;99.90
7694;DHT22;3889;48.162;11.510;2022-12-18T15:01:58;-3.50;99.90
7694;DHT22;3889;48.162;11.510;2022-12-18T15:04:29;-3.50;99.90
7694;DHT22;3889;48.162;11.510;2022-12-18T15:07:09;-3.40;99.90
7694;DHT22;3889;48.162;11.510;2022-12-18T15:09:38;-3.20;99.90
7694;DHT22;3889;48.162;11.510;2022-12-18T15:12:20;-3.30;99.90
7694;DHT22;3889;48.162;11.510;2022-12-18T15:14:50;-3.30;99.90
7694;DHT22;3889;48.162;11.510;2022-12-18T15:17:22;-3.30;99.90
7694;DHT22;3889;48.162;11.510;2022-12-18T15:19:58;-3.30;99.90
7694;DHT22;3889;48.162;11.510;2022-12-18T15:22:27;-3.30;99.90
7694;DHT22;3889;48.162;11.510;2022-12-18T15:24:56;-3.30;99.90
7694;DHT22;3889;48.162;11.510;2022-12-18T15:27:27;-3.50;99.90
7694;DHT22;3889;48.162;11.510;2022-12-18T15:30:18;-3.60;99.90
7694;DHT22;3889;48.162;11.510;2022-12-18T15:32:48;-3.70;99.90
7694;DHT22;3889;48.162;11.510;2022-12-18T15:35:19;-3.70;99.90
7694;DHT22;3889;48.162;11.510;2022-12-18T15:37:48;-3.60;99.90
7694;DHT22;3889;48.162;11.510;2022-12-18T15:40:18;-3.60;99.90
7694;DHT22;3889;48.162;11.510;2022-12-18T15:42:47;-3.50;99.90
7694;DHT22;3889;48.162;11.510;2022-12-18T15:45:33;-3.40;99.90
7694;DHT22;3889;48.162;11.510;2022-12-18T15:48:20;-3.40;99.90
7694;DHT22;3889;48.162;11.510;2022-12-18T15:50:49;-3.60;99.90
7694;DHT22;3889;48.162;11.510;2022-12-18T15:53:17;-3.70;99.90
7694;DHT22;3889;48.162;11.510;2022-12-18T15:55:45;-3.60;99.90
7694;DHT22;3889;48.162;11.510;2022-12-18T15:58:32;-3.60;99.90
7694;DHT22;3889;48.162;11.510;2022-12-18T16:01:00;-3.50;99.90
7694;DHT22;3889;48.162;11.510;2022-12-18T16:03:30;-3.50;99.90
7694;DHT22;3889;48.162;11.510;2022-12-18T16:05:59;-3.40;99.90
7694;DHT22;3889;48.162;11.510;2022-12-18T16:08:29;-3.40;99.90
7694;DHT22;3889;48.162;11.510;2022-12-18T16:10:57;-3.40;99.90
7694;DHT22;3889;48.162;11.510;2022-12-18T16:13:25;-3.40;99.90
7694;DHT22;3889;48.162;11.510;2022-12-18T16:15:53;-3.40;99.90
7694;DHT22;3889;48.162;11.510;2022-12-18T16:18:21;-3.30;99.90
7694;DHT22;3889;48.162;11.510;2022-12-18T16:20:51;-3.30;99.90